Terminal Aerodrome Forecast
Issued by NWS Hastings, NE

Home | Current Version | Previous Version | Text Only | Print | Product List | Glossary On
Versions: 1 2 3 4 5 6 7 8 9 10 11 12 13 14 15 16 17 18 19 20 21 22 23 24 25 26 27 28 29 30 31 32 33 34 35 36 37 38 39 40 41 42 43 44 45 46
000
FTUS45 KGID 191726
TAFEAR
TAF
KEAR 191726Z 1918/2018 VRB04KT P6SM SCT015 BKN025 BKN120
     FM192100 VRB05KT P6SM SCT035 BKN120
     FM200100 16006KT P6SM FEW250
     FM200800 18008KT P6SM SCT100
     FM201300 24014G20KT P6SM SKC
     FM201600 30014G20KT P6SM SKC=

USA.gov is the U.S. government's official web portal to all federal, state and local government web resources and services.